Time;durP1;ratioP1;P1;durP2;ratioP2;P2;SDS_P1;SDS_P2;PMS_P1;PMS_P2;Temp;Humidity;BMP_temperature;BMP_pressure;BME280_temperature;BME280_humidity;BME280_pressure;Samples;Min_cycle;Max_cycle;Signal;HPM_P1;HPM_P2
2023/05/06 00:02:18;;;;;;;7.72;4.15;;;;;;;11.23;nan;101173.25;4991242;28;20030;-81
2023/05/06 00:04:45;;;;;;;3.88;3.20;;;;;;;11.26;nan;101159.97;4982834;28;20044;-81
2023/05/06 00:07:12;;;;;;;5.63;2.97;;;;;;;11.19;nan;101159.22;5006413;28;20101;-80
2023/05/06 00:09:39;;;;;;;5.78;3.53;;;;;;;11.03;nan;101160.34;5003262;28;20101;-82
2023/05/06 00:12:06;;;;;;;4.43;3.20;;;;;;;11.04;nan;101146.22;4989843;28;20030;-80
2023/05/06 00:14:33;;;;;;;7.10;3.63;;;;;;;11.04;nan;101145.34;4994394;28;20498;-80
2023/05/06 00:17:00;;;;;;;5.93;3.20;;;;;;;10.87;nan;101143.81;4991019;28;20049;-82
2023/05/06 00:19:27;;;;;;;5.68;3.75;;;;;;;10.97;nan;101140.13;4986933;28;20502;-80
2023/05/06 00:21:54;;;;;;;6.03;3.83;;;;;;;11.01;nan;101135.66;5011618;28;20044;-80
2023/05/06 00:24:21;;;;;;;4.93;3.38;;;;;;;10.93;nan;101140.19;4994989;28;20052;-80
2023/05/06 00:26:48;;;;;;;5.75;2.85;;;;;;;10.85;nan;101140.34;4977887;28;20498;-79
2023/05/06 00:29:16;;;;;;;7.13;3.47;;;;;;;10.88;nan;101135.00;5008149;28;20030;-79
2023/05/06 00:31:44;;;;;;;4.40;3.10;;;;;;;10.86;nan;101133.28;4991466;28;20530;-79
2023/05/06 00:34:11;;;;;;;6.03;3.37;;;;;;;10.79;nan;101134.25;4989280;28;20033;-79
2023/05/06 00:36:38;;;;;;;7.60;3.10;;;;;;;10.63;nan;101123.88;4987596;28;20601;-80
2023/05/06 00:39:05;;;;;;;4.68;3.00;;;;;;;10.57;nan;101123.94;4987529;28;20025;-79
2023/05/06 00:41:32;;;;;;;6.53;3.03;;;;;;;10.64;nan;101127.41;5010975;28;20041;-80
2023/05/06 00:43:59;;;;;;;5.32;3.35;;;;;;;10.34;nan;101121.63;4989256;28;20041;-79
2023/05/06 00:46:26;;;;;;;6.33;3.63;;;;;;;10.33;nan;101121.63;4974394;28;20056;-82
2023/05/06 00:48:53;;;;;;;6.27;3.70;;;;;;;10.31;nan;101116.34;4988849;28;20040;-80
2023/05/06 00:51:21;;;;;;;7.03;3.70;;;;;;;10.37;nan;101115.41;4985856;28;20052;-81
2023/05/06 00:53:48;;;;;;;5.67;3.30;;;;;;;10.36;nan;101105.75;4988788;28;20056;-79
2023/05/06 00:56:16;;;;;;;5.63;3.50;;;;;;;10.29;nan;101106.72;5003363;28;20049;-81
2023/05/06 00:58:46;;;;;;;6.43;3.60;;;;;;;10.17;nan;101105.03;4989746;28;20561;-80
2023/05/06 01:01:13;;;;;;;5.10;3.00;;;;;;;9.95;nan;101112.34;4994127;28;20056;-80
2023/05/06 01:03:41;;;;;;;6.57;3.13;;;;;;;9.80;nan;101117.78;4992189;28;20040;-81
2023/05/06 01:06:18;;;;;;;6.47;3.30;;;;;;;9.88;nan;101118.56;5001615;28;20508;-80
2023/05/06 01:08:55;;;;;;;7.17;3.57;;;;;;;9.88;nan;101118.56;5009746;28;20038;-81
2023/05/06 01:11:37;;;;;;;9.80;4.20;;;;;;;9.63;nan;101117.06;4997498;28;20049;-81
2023/05/06 01:14:24;;;;;;;4.83;3.60;;;;;;;9.52;nan;101112.78;4999233;28;20526;-81
2023/05/06 01:16:54;;;;;;;6.77;3.50;;;;;;;9.33;nan;101105.88;5008036;28;20043;-80
2023/05/06 01:19:40;;;;;;;6.30;3.90;;;;;;;9.34;nan;101102.38;4990825;28;20029;-81
2023/05/06 01:22:09;;;;;;;6.47;3.67;;;;;;;9.22;nan;101107.75;4986147;28;20385;-80
2023/05/06 01:24:38;;;;;;;6.17;3.77;;;;;;;9.02;nan;101107.91;4988616;28;20051;-80
2023/05/06 01:27:05;;;;;;;6.13;3.60;;;;;;;8.91;nan;101113.25;4968907;28;20409;-80
2023/05/06 01:29:35;;;;;;;7.80;4.10;;;;;;;8.99;nan;101108.78;5006351;28;20056;-80
2023/05/06 01:32:20;;;;;;;6.63;3.80;;;;;;;8.85;nan;101112.41;4991656;28;20128;-79
2023/05/06 01:34:55;;;;;;;6.23;3.80;;;;;;;8.72;nan;101108.94;4988363;28;20052;-80
2023/05/06 01:37:45;;;;;;;5.30;3.53;;;;;;;8.69;nan;101104.59;4986326;28;20034;-80
2023/05/06 01:40:13;;;;;;;7.83;4.30;;;;;;;8.76;nan;101097.53;5002496;28;20616;-79
2023/05/06 01:42:40;;;;;;;7.07;3.67;;;;;;;8.70;nan;101106.34;4987119;28;20037;-80
2023/05/06 01:45:08;;;;;;;5.97;3.80;;;;;;;8.58;nan;101109.03;4990551;28;20063;-80
2023/05/06 01:47:37;;;;;;;9.47;3.80;;;;;;;8.41;nan;101111.75;5008653;28;20052;-80
2023/05/06 01:50:05;;;;;;;7.97;4.20;;;;;;;8.49;nan;101103.78;4993694;28;20077;-80
2023/05/06 01:52:32;;;;;;;6.37;3.90;;;;;;;8.34;nan;101117.03;4995654;28;20034;-80
2023/05/06 01:54:59;;;;;;;5.73;3.60;;;;;;;8.36;nan;101118.78;5002125;28;20153;-80
2023/05/06 01:57:27;;;;;;;6.97;3.83;;;;;;;8.36;nan;101118.78;5007982;28;20044;-80
2023/05/06 01:59:54;;;;;;;6.33;3.63;;;;;;;8.29;nan;101106.50;5008251;28;20124;-79
2023/05/06 02:02:23;;;;;;;5.87;3.67;;;;;;;8.24;nan;101113.56;5005635;28;20124;-81
2023/05/06 02:04:51;;;;;;;7.83;3.60;;;;;;;8.10;nan;101112.72;5015045;28;20261;-80
2023/05/06 02:07:19;;;;;;;6.50;4.53;;;;;;;8.12;nan;101106.56;5002769;28;20179;-81
2023/05/06 02:09:46;;;;;;;6.57;4.20;;;;;;;8.09;nan;101105.69;5014822;28;20121;-80
2023/05/06 02:12:12;;;;;;;8.43;4.43;;;;;;;7.98;nan;101107.47;5009207;28;20121;-80
2023/05/06 02:14:40;;;;;;;5.37;3.83;;;;;;;7.95;nan;101113.63;4974576;28;20113;-80
2023/05/06 02:17:07;;;;;;;6.13;3.70;;;;;;;7.80;nan;101104.00;4994494;28;20046;-81
2023/05/06 02:19:35;;;;;;;8.47;4.27;;;;;;;7.72;nan;101103.16;4996215;28;20042;-80
2023/05/06 02:22:02;;;;;;;10.57;4.90;;;;;;;7.79;nan;101104.88;4969936;28;20052;-80
2023/05/06 02:24:32;;;;;;;8.67;4.70;;;;;;;7.71;nan;101104.03;5008688;28;20033;-80
2023/05/06 02:27:00;;;;;;;7.63;4.40;;;;;;;7.72;nan;101105.78;5010275;28;20184;-79
2023/05/06 02:29:27;;;;;;;8.07;4.50;;;;;;;7.62;nan;101101.41;4996204;28;20044;-80
2023/05/06 02:31:54;;;;;;;8.27;4.23;;;;;;;7.58;nan;101097.06;5014448;28;20102;-80
2023/05/06 02:34:22;;;;;;;7.67;4.47;;;;;;;7.66;nan;101095.28;4989471;28;20033;-80
2023/05/06 02:36:49;;;;;;;6.10;4.10;;;;;;;7.64;nan;101097.03;5013836;28;20094;-80
2023/05/06 02:39:15;;;;;;;8.53;4.57;;;;;;;7.53;nan;101094.41;5003291;28;20129;-80
2023/05/06 02:41:42;;;;;;;9.20;4.57;;;;;;;7.49;nan;101102.31;5007984;28;20582;-80
2023/05/06 02:44:09;;;;;;;6.27;4.30;;;;;;;7.59;nan;101099.66;5012446;28;20121;-80
2023/05/06 02:46:36;;;;;;;9.67;4.90;;;;;;;7.66;nan;101103.19;5006625;28;20120;-80
2023/05/06 02:49:03;;;;;;;6.43;4.20;;;;;;;7.55;nan;101102.28;5017199;28;20487;-80
2023/05/06 02:51:30;;;;;;;7.17;4.23;;;;;;;7.43;nan;101089.19;4990660;28;20116;-81
2023/05/06 02:53:57;;;;;;;8.93;5.27;;;;;;;7.36;nan;101093.56;4996211;28;20045;-81
2023/05/06 02:56:24;;;;;;;9.23;5.33;;;;;;;7.45;nan;101082.16;4996725;28;20041;-81
2023/05/06 02:58:52;;;;;;;8.93;5.20;;;;;;;7.39;nan;101074.25;5013862;28;20033;-81
2023/05/06 03:01:19;;;;;;;7.20;4.83;;;;;;;7.31;nan;101069.91;4998685;28;20117;-81
2023/05/06 03:03:46;;;;;;;7.73;4.57;;;;;;;7.39;nan;101071.63;4996248;28;20044;-79
2023/05/06 03:06:13;;;;;;;9.40;4.77;;;;;;;7.28;nan;101058.50;4994509;28;20542;-80
2023/05/06 03:08:40;;;;;;;9.07;4.90;;;;;;;7.10;nan;101061.16;4989832;28;20044;-81
2023/05/06 03:11:07;;;;;;;8.97;4.77;;;;;;;7.14;nan;101060.25;5014177;28;20044;-80
2023/05/06 03:13:34;;;;;;;8.97;4.60;;;;;;;7.12;nan;101055.00;5003132;28;20053;-80
2023/05/06 03:16:04;;;;;;;6.77;4.27;;;;;;;7.05;nan;101045.38;5010874;28;20459;-81
2023/05/06 03:18:31;;;;;;;7.43;4.23;;;;;;;7.10;nan;101043.63;5016756;28;20108;-80
2023/05/06 03:20:58;;;;;;;8.17;4.97;;;;;;;6.99;nan;101045.41;5015836;28;20155;-79
2023/05/06 03:23:25;;;;;;;7.63;4.67;;;;;;;6.91;nan;101047.13;5035891;28;20093;-79
2023/05/06 03:25:52;;;;;;;8.80;4.57;;;;;;;6.75;nan;101055.00;5025704;28;20066;-80
2023/05/06 03:28:19;;;;;;;8.57;5.00;;;;;;;6.66;nan;101057.59;5012134;28;20037;-81
2023/05/06 03:30:46;;;;;;;7.67;5.00;;;;;;;6.71;nan;101053.22;4989714;28;20117;-80
2023/05/06 03:33:13;;;;;;;8.60;4.70;;;;;;;6.78;nan;101047.09;5011892;28;20041;-81
2023/05/06 03:35:40;;;;;;;7.40;4.67;;;;;;;6.83;nan;101052.38;5000292;28;20044;-80
2023/05/06 03:38:07;;;;;;;8.03;4.83;;;;;;;6.86;nan;101047.13;5001262;28;20072;-81
2023/05/06 03:40:34;;;;;;;7.57;4.83;;;;;;;6.78;nan;101044.47;4993257;28;20037;-81
2023/05/06 03:43:01;;;;;;;8.07;5.20;;;;;;;6.71;nan;101040.09;4998068;28;20059;-81
2023/05/06 03:45:28;;;;;;;8.33;4.63;;;;;;;6.84;nan;101055.88;4991820;28;20621;-80
2023/05/06 03:47:55;;;;;;;8.43;4.50;;;;;;;6.86;nan;101054.13;4983419;28;20414;-80
2023/05/06 03:50:24;;;;;;;9.27;5.23;;;;;;;6.88;nan;101050.63;4997604;28;20420;-81
2023/05/06 03:52:51;;;;;;;10.03;4.77;;;;;;;6.89;nan;101059.38;4991195;28;20043;-80
2023/05/06 03:55:18;;;;;;;9.23;5.10;;;;;;;6.80;nan;101044.47;4996149;28;20042;-81
2023/05/06 03:57:45;;;;;;;11.07;5.07;;;;;;;6.78;nan;101046.22;4997801;28;20041;-81
2023/05/06 04:00:12;;;;;;;8.43;5.13;;;;;;;6.77;nan;101048.00;5007361;28;20037;-82
2023/05/06 04:02:41;;;;;;;7.80;4.97;;;;;;;6.80;nan;101052.34;4995936;28;21915;-80
2023/05/06 04:05:08;;;;;;;7.17;4.80;;;;;;;6.74;nan;101048.00;5015421;28;20128;-80
2023/05/06 04:07:35;;;;;;;8.43;5.00;;;;;;;6.71;nan;101045.34;5008531;28;20040;-80
2023/05/06 04:10:02;;;;;;;9.50;4.60;;;;;;;6.74;nan;101047.13;5008191;28;20026;-82
2023/05/06 04:12:29;;;;;;;6.10;4.97;;;;;;;6.62;nan;101050.59;4996624;28;20501;-80
2023/05/06 04:14:56;;;;;;;9.70;5.10;;;;;;;6.62;nan;101060.22;5009536;28;20037;-81
2023/05/06 04:17:23;;;;;;;10.10;5.00;;;;;;;6.59;nan;101055.84;5005719;28;20041;-80
2023/05/06 04:19:52;;;;;;;8.33;5.57;;;;;;;6.67;nan;101061.97;4997377;28;20041;-80
2023/05/06 04:22:19;;;;;;;8.50;5.00;;;;;;;6.70;nan;101061.97;4996318;28;20042;-80
2023/05/06 04:24:46;;;;;;;8.93;5.40;;;;;;;6.66;nan;101060.22;5008905;28;20033;-80
2023/05/06 04:27:13;;;;;;;8.90;5.53;;;;;;;6.74;nan;101062.88;4987976;28;20048;-82
2023/05/06 04:29:40;;;;;;;8.07;4.60;;;;;;;6.71;nan;101066.34;5006783;28;20025;-81
2023/05/06 04:32:10;;;;;;;11.27;6.13;;;;;;;6.80;nan;101064.63;5010080;28;20037;-82
2023/05/06 04:34:37;;;;;;;8.73;5.37;;;;;;;6.68;nan;101060.22;5015562;28;20533;-81
2023/05/06 04:37:04;;;;;;;10.93;5.33;;;;;;;6.80;nan;101067.25;4995084;28;20038;-82
2023/05/06 04:39:31;;;;;;;9.37;4.77;;;;;;;6.78;nan;101056.75;4992381;28;20037;-85
2023/05/06 04:41:58;;;;;;;9.63;6.07;;;;;;;6.74;nan;101074.25;4988323;28;20087;-83
2023/05/06 04:44:26;;;;;;;8.60;5.43;;;;;;;6.77;nan;101058.50;4999536;28;20045;-81
2023/05/06 04:46:53;;;;;;;8.40;5.03;;;;;;;6.76;nan;101063.75;5001265;28;20487;-83
2023/05/06 04:49:19;;;;;;;9.63;5.47;;;;;;;6.64;nan;101069.88;5010423;28;20038;-84
2023/05/06 04:51:47;;;;;;;9.83;5.80;;;;;;;6.77;nan;101074.25;4995696;28;20033;-82
2023/05/06 04:54:14;;;;;;;8.83;5.10;;;;;;;6.74;nan;101079.50;5011629;28;20033;-82
2023/05/06 04:56:44;;;;;;;9.93;5.17;;;;;;;6.85;nan;101084.75;4995177;28;20117;-84
2023/05/06 04:59:11;;;;;;;9.20;5.30;;;;;;;6.71;nan;101075.97;5011403;28;20033;-84
2023/05/06 05:01:38;;;;;;;9.07;5.17;;;;;;;6.82;nan;101090.03;4999751;28;20041;-83
2023/05/06 05:04:06;;;;;;;9.50;6.07;;;;;;;6.92;nan;101083.03;5013571;28;20059;-82
2023/05/06 05:06:33;;;;;;;8.73;5.37;;;;;;;6.93;nan;101080.41;5001686;28;20040;-83
2023/05/06 05:09:00;;;;;;;9.60;5.90;;;;;;;6.90;nan;101097.91;4990459;28;20030;-82
2023/05/06 05:11:27;;;;;;;8.90;5.10;;;;;;;6.70;nan;101104.00;4987744;28;21717;-83
2023/05/06 05:13:54;;;;;;;9.07;5.77;;;;;;;6.67;nan;101096.13;5015796;28;20041;-81
2023/05/06 05:16:22;;;;;;;9.07;5.40;;;;;;;6.91;nan;101100.53;5028058;28;20498;-84
2023/05/06 05:18:50;;;;;;;8.53;5.73;;;;;;;6.83;nan;101099.66;5007381;28;20053;-82
2023/05/06 05:21:17;;;;;;;9.50;6.23;;;;;;;6.82;nan;101110.16;5009983;28;20498;-84
2023/05/06 05:23:44;;;;;;;12.60;5.77;;;;;;;6.86;nan;101114.53;5012387;28;20033;-83
2023/05/06 05:26:12;;;;;;;6.90;5.07;;;;;;;6.78;nan;101120.63;4995420;28;20041;-84
2023/05/06 05:28:38;;;;;;;9.03;5.57;;;;;;;6.86;nan;101119.78;4990556;28;20404;-86
2023/05/06 05:31:05;;;;;;;11.70;5.73;;;;;;;6.78;nan;101125.88;5014188;28;20192;-83
2023/05/06 05:33:35;;;;;;;8.67;5.40;;;;;;;6.89;nan;101136.41;4987594;28;20525;-84
2023/05/06 05:36:03;;;;;;;9.40;6.27;;;;;;;6.98;nan;101130.34;4970301;28;20044;-82
2023/05/06 05:38:29;;;;;;;10.13;5.70;;;;;;;6.91;nan;101126.81;5004221;28;20049;-82
2023/05/06 05:40:56;;;;;;;11.10;5.90;;;;;;;6.84;nan;101135.53;5021471;28;20051;-86
2023/05/06 05:43:25;;;;;;;12.10;6.20;;;;;;;6.97;nan;101134.69;4989962;28;20048;-82
2023/05/06 05:45:52;;;;;;;8.77;6.00;;;;;;;7.04;nan;101131.19;4978288;28;20669;-82
2023/05/06 05:48:19;;;;;;;9.63;5.73;;;;;;;7.04;nan;101136.44;5005433;28;20037;-85
2023/05/06 05:50:46;;;;;;;8.73;5.33;;;;;;;7.03;nan;101137.31;5008058;28;20505;-82
2023/05/06 05:53:13;;;;;;;7.80;5.47;;;;;;;7.14;nan;101118.94;5008602;28;20662;-85
2023/05/06 05:55:40;;;;;;;9.20;5.97;;;;;;;7.08;nan;101132.09;4987341;28;20044;-82
2023/05/06 05:58:09;;;;;;;10.97;6.17;;;;;;;7.19;nan;101130.34;4993468;28;20280;-86
2023/05/06 06:00:36;;;;;;;8.90;6.10;;;;;;;7.05;nan;101139.94;5002088;28;20060;-84
2023/05/06 06:03:03;;;;;;;8.50;5.67;;;;;;;7.18;nan;101138.22;4995782;28;20207;-84
2023/05/06 06:05:30;;;;;;;7.33;5.63;;;;;;;7.20;nan;101141.72;4985751;28;20038;-82
2023/05/06 06:07:57;;;;;;;8.87;6.37;;;;;;;7.21;nan;101138.22;4989564;28;20037;-84
2023/05/06 06:10:25;;;;;;;8.57;5.77;;;;;;;7.05;nan;101145.19;4995462;28;20038;-83
2023/05/06 06:12:52;;;;;;;10.47;6.20;;;;;;;7.08;nan;101145.22;5006738;28;20364;-84
2023/05/06 06:15:19;;;;;;;8.70;5.73;;;;;;;7.21;nan;101156.63;4999080;28;20053;-83
2023/05/06 06:17:46;;;;;;;9.23;5.20;;;;;;;7.21;nan;101159.25;5003900;28;20486;-81
2023/05/06 06:20:13;;;;;;;8.90;5.40;;;;;;;7.09;nan;101151.34;4997169;28;20033;-85
2023/05/06 06:22:40;;;;;;;7.83;5.47;;;;;;;7.10;nan;101150.47;4993765;28;20045;-83
2023/05/06 06:25:08;;;;;;;8.70;6.40;;;;;;;7.17;nan;101153.13;4989254;28;20039;-85
2023/05/06 06:27:35;;;;;;;10.50;6.13;;;;;;;7.12;nan;101153.97;5016640;28;20406;-81
2023/05/06 06:30:03;;;;;;;9.07;6.13;;;;;;;7.00;nan;101154.84;5007855;28;20486;-84
2023/05/06 06:32:30;;;;;;;9.27;5.50;;;;;;;7.01;nan;101157.47;5017933;28;20038;-83
2023/05/06 06:34:57;;;;;;;8.90;5.80;;;;;;;7.09;nan;101146.97;5020306;28;20048;-83
2023/05/06 06:37:24;;;;;;;8.80;6.03;;;;;;;7.29;nan;101144.34;4999288;28;20041;-84
2023/05/06 06:39:51;;;;;;;9.47;5.97;;;;;;;7.10;nan;101148.72;4990535;28;20067;-83
2023/05/06 06:42:18;;;;;;;9.30;5.77;;;;;;;7.16;nan;101150.50;4999802;28;20038;-85
2023/05/06 06:44:45;;;;;;;11.73;6.10;;;;;;;7.13;nan;101143.47;4980551;28;20508;-84
2023/05/06 06:47:12;;;;;;;10.37;6.53;;;;;;;7.18;nan;101141.72;4992572;28;20038;-85
2023/05/06 06:49:39;;;;;;;11.07;6.00;;;;;;;7.21;nan;101139.09;4992387;28;20044;-84
2023/05/06 06:52:06;;;;;;;9.10;6.23;;;;;;;7.47;nan;101139.09;4971431;28;20418;-83
2023/05/06 06:54:33;;;;;;;10.57;6.63;;;;;;;7.41;nan;101133.88;4987581;28;20065;-84
2023/05/06 06:57:00;;;;;;;8.63;6.10;;;;;;;7.52;nan;101139.13;4971173;28;20052;-85
2023/05/06 06:59:27;;;;;;;9.50;5.83;;;;;;;7.50;nan;101138.25;4991743;28;20037;-85
2023/05/06 07:01:54;;;;;;;11.47;6.87;;;;;;;7.43;nan;101139.13;5000309;28;20034;-83
2023/05/06 07:04:21;;;;;;;10.33;6.23;;;;;;;7.48;nan;101140.88;4985791;28;20034;-83
2023/05/06 07:06:51;;;;;;;11.17;6.97;;;;;;;7.50;nan;101135.63;4972632;28;20045;-85
2023/05/06 07:09:18;;;;;;;11.23;6.40;;;;;;;7.40;nan;101134.75;5009634;28;20105;-80
2023/05/06 07:11:45;;;;;;;8.80;6.10;;;;;;;7.41;nan;101133.00;4995093;28;20048;-81
2023/05/06 07:14:12;;;;;;;9.97;6.50;;;;;;;7.36;nan;101140.00;4992480;28;20034;-81
2023/05/06 07:16:39;;;;;;;10.47;6.67;;;;;;;7.40;nan;101137.38;4992777;28;20052;-82
2023/05/06 07:19:06;;;;;;;9.77;6.63;;;;;;;7.39;nan;101137.34;4974616;28;20055;-80
2023/05/06 07:21:33;;;;;;;11.47;6.90;;;;;;;7.65;nan;101138.25;4985322;28;20042;-80
2023/05/06 07:24:00;;;;;;;11.67;6.90;;;;;;;7.64;nan;101146.97;4990501;28;20037;-81
2023/05/06 07:26:27;;;;;;;9.60;6.53;;;;;;;7.61;nan;101147.00;5006784;28;20034;-80
2023/05/06 07:28:54;;;;;;;10.23;6.40;;;;;;;7.57;nan;101142.63;5005591;28;20463;-81
2023/05/06 07:31:21;;;;;;;10.17;6.07;;;;;;;7.44;nan;101143.50;5006594;28;20624;-80
2023/05/06 07:33:48;;;;;;;8.97;7.13;;;;;;;7.55;nan;101145.22;5009693;28;20044;-84
2023/05/06 07:36:15;;;;;;;10.57;6.93;;;;;;;7.48;nan;101145.22;4992348;28;20948;-82
2023/05/06 07:38:43;;;;;;;13.03;7.30;;;;;;;7.53;nan;101138.22;4980847;28;20051;-83
2023/05/06 07:41:10;;;;;;;11.30;8.27;;;;;;;7.66;nan;101140.00;4973879;28;20038;-80
2023/05/06 07:43:37;;;;;;;12.07;7.37;;;;;;;7.54;nan;101135.59;5012326;28;20403;-85
2023/05/06 07:46:04;;;;;;;8.97;6.93;;;;;;;7.51;nan;101138.25;4995628;28;20044;-82
2023/05/06 07:48:32;;;;;;;11.27;7.53;;;;;;;7.53;nan;101143.50;4987990;28;20030;-84
2023/05/06 07:50:59;;;;;;;10.47;7.43;;;;;;;7.50;nan;101140.88;4994170;28;20030;-85
2023/05/06 07:53:26;;;;;;;11.63;7.27;;;;;;;7.50;nan;101139.13;4973569;28;20054;-83
2023/05/06 07:55:55;;;;;;;16.63;8.47;;;;;;;7.60;nan;101145.25;5007186;28;20038;-81
2023/05/06 07:58:23;;;;;;;11.77;7.57;;;;;;;7.65;nan;101143.50;5009836;28;20041;-81
2023/05/06 08:00:49;;;;;;;11.07;7.90;;;;;;;7.67;nan;101148.75;4991699;28;20050;-82
2023/05/06 08:03:16;;;;;;;12.40;8.67;;;;;;;7.58;nan;101144.38;5001923;28;20558;-82
2023/05/06 08:05:44;;;;;;;11.13;7.30;;;;;;;7.28;nan;101147.88;5018028;28;20085;-81
2023/05/06 08:08:11;;;;;;;12.03;8.07;;;;;;;7.38;nan;101152.25;5021580;28;20454;-84
2023/05/06 08:10:38;;;;;;;14.27;8.43;;;;;;;7.48;nan;101150.50;5001486;28;20081;-82
2023/05/06 08:13:05;;;;;;;11.50;8.57;;;;;;;7.51;nan;101150.50;5035660;28;20917;-83
2023/05/06 08:15:32;;;;;;;11.33;7.83;;;;;;;7.48;nan;101154.03;5007525;28;20585;-83
2023/05/06 08:17:59;;;;;;;11.73;8.63;;;;;;;7.16;nan;101163.63;5010167;28;20124;-84
2023/05/06 08:20:36;;;;;;;13.63;8.37;;;;;;;7.40;nan;101154.88;5013615;28;20085;-82
2023/05/06 08:23:03;;;;;;;12.30;8.27;;;;;;;7.46;nan;101155.75;4999692;28;20357;-85
2023/05/06 08:25:30;;;;;;;12.77;8.57;;;;;;;7.44;nan;101157.50;5016302;28;20115;-84
2023/05/06 08:27:56;;;;;;;10.77;8.13;;;;;;;7.42;nan;101168.91;5000235;28;20033;-81
2023/05/06 08:30:24;;;;;;;11.23;7.77;;;;;;;7.45;nan;101161.03;4996190;28;20030;-84
2023/05/06 08:32:51;;;;;;;10.97;8.03;;;;;;;7.40;nan;101155.78;5007017;28;20037;-81
2023/05/06 08:35:18;;;;;;;11.87;8.27;;;;;;;7.53;nan;101159.25;4999253;28;20040;-83
2023/05/06 08:37:45;;;;;;;12.27;8.50;;;;;;;7.60;nan;101166.28;5001044;28;20045;-86
2023/05/06 08:40:20;;;;;;;13.23;8.30;;;;;;;7.67;nan;101170.66;4997496;28;20047;-82
2023/05/06 08:42:49;;;;;;;12.27;8.50;;;;;;;7.26;nan;101179.41;5016147;28;20040;-82
2023/05/06 08:45:16;;;;;;;12.90;9.33;;;;;;;7.54;nan;101177.66;4982294;28;20041;-86
2023/05/06 08:47:43;;;;;;;13.10;8.90;;;;;;;7.55;nan;101173.28;5021801;28;20049;-84
2023/05/06 08:50:11;;;;;;;12.50;8.33;;;;;;;7.66;nan;101181.19;4994581;28;20364;-82
2023/05/06 08:52:38;;;;;;;12.70;8.73;;;;;;;7.72;nan;101174.16;4985909;28;20040;-81
2023/05/06 08:55:06;;;;;;;10.13;7.77;;;;;;;7.75;nan;101183.81;4989384;28;20037;-82
2023/05/06 08:57:33;;;;;;;11.33;8.43;;;;;;;7.66;nan;101186.47;5005759;28;20038;-82
2023/05/06 09:00:01;;;;;;;11.63;8.40;;;;;;;7.65;nan;101188.22;5002821;28;20033;-83
2023/05/06 09:02:28;;;;;;;13.03;9.57;;;;;;;7.79;nan;101188.19;4990188;28;20045;-84
2023/05/06 09:04:55;;;;;;;11.90;8.37;;;;;;;7.70;nan;101190.81;5008174;28;20039;-81
2023/05/06 09:07:23;;;;;;;11.20;8.03;;;;;;;7.73;nan;101185.53;4985972;28;20045;-81
2023/05/06 09:09:50;;;;;;;12.20;9.43;;;;;;;7.86;nan;101192.56;5006052;28;20045;-83
2023/05/06 09:12:17;;;;;;;12.20;9.40;;;;;;;7.88;nan;101188.16;4987129;28;20052;-80
2023/05/06 09:14:48;;;;;;;19.67;14.13;;;;;;;7.84;nan;101195.19;4998445;28;20029;-81
2023/05/06 09:17:22;;;;;;;18.00;14.60;;;;;;;7.93;nan;101196.06;4998937;28;20051;-80
2023/05/06 09:19:52;;;;;;;11.77;8.47;;;;;;;8.00;nan;101197.81;4985465;28;20560;-80
2023/05/06 09:22:23;;;;;;;13.20;9.87;;;;;;;7.92;nan;101204.84;5002202;28;20040;-80
2023/05/06 09:24:56;;;;;;;12.10;8.40;;;;;;;7.86;nan;101203.97;4992612;28;20102;-80
2023/05/06 09:27:28;;;;;;;13.23;9.60;;;;;;;7.99;nan;101209.19;5003704;28;20512;-81
2023/05/06 09:30:04;;;;;;;13.38;9.00;;;;;;;7.76;nan;101196.97;5188287;23;20041;-79
2023/05/06 09:32:31;;;;;;;12.63;9.40;;;;;;;7.85;nan;101196.06;5028702;28;20021;-80
2023/05/06 09:34:59;;;;;;;11.63;9.00;;;;;;;7.95;nan;101203.06;5046480;28;20037;-80
2023/05/06 09:37:26;;;;;;;9.97;7.60;;;;;;;8.02;nan;101203.97;5020717;28;20041;-81
2023/05/06 09:39:55;;;;;;;13.83;8.40;;;;;;;7.89;nan;101206.59;5019015;28;20397;-81
2023/05/06 09:42:27;;;;;;;10.63;9.17;;;;;;;8.03;nan;101208.34;5004472;28;20051;-78
2023/05/06 09:44:56;;;;;;;11.20;7.67;;;;;;;7.83;nan;101211.00;5018196;28;20285;-79
2023/05/06 09:47:32;;;;;;;10.53;8.17;;;;;;;7.96;nan;101219.75;5037285;28;20061;-80
2023/05/06 09:50:00;;;;;;;;;;;;;;;7.94;nan;101225.00;5016030;28;20391;-79
2023/05/06 09:52:27;;;;;;;11.17;9.17;;;;;;;8.01;nan;101224.13;5035359;28;19928;-83
2023/05/06 09:54:54;;;;;;;12.63;9.23;;;;;;;8.18;nan;101218.84;5022617;28;20290;-80
2023/05/06 09:57:22;;;;;;;14.40;9.27;;;;;;;7.99;nan;101217.09;5057093;28;20039;-79
2023/05/06 09:59:51;;;;;;;10.07;8.50;;;;;;;8.16;nan;101223.25;5017383;28;20805;-82
2023/05/06 10:02:18;;;;;;;9.47;7.97;;;;;;;8.03;nan;101219.72;5023910;28;20071;-80
2023/05/06 10:04:47;;;;;;;9.90;7.47;;;;;;;8.08;nan;101211.84;5026020;28;20051;-81
2023/05/06 10:07:18;;;;;;;9.13;7.07;;;;;;;8.06;nan;101224.09;5023206;28;20484;-79
2023/05/06 10:09:45;;;;;;;9.07;7.60;;;;;;;8.14;nan;101211.81;5031379;28;20049;-84
2023/05/06 10:12:12;;;;;;;11.03;7.97;;;;;;;8.15;nan;101224.09;5028587;28;20041;-81
2023/05/06 10:14:39;;;;;;;11.03;9.07;;;;;;;8.15;nan;101222.34;5018411;28;20401;-81
2023/05/06 10:17:08;;;;;;;10.03;7.27;;;;;;;8.24;nan;101224.09;5020681;28;20037;-80
2023/05/06 10:19:39;;;;;;;8.80;7.60;;;;;;;8.31;nan;101220.56;5040341;28;20029;-85
2023/05/06 10:22:27;;;;;;;10.27;7.50;;;;;;;8.17;nan;101217.97;5025500;28;20025;-82
2023/05/06 10:25:05;;;;;;;8.63;7.00;;;;;;;8.26;nan;101229.38;5037795;28;20041;-81
2023/05/06 10:27:40;;;;;;;9.87;6.63;;;;;;;8.20;nan;101230.25;5037485;28;20037;-82
2023/05/06 10:30:08;;;;;;;11.00;7.53;;;;;;;8.24;nan;101236.38;5021978;28;20045;-83
2023/05/06 10:32:49;;;;;;;13.20;10.33;;;;;;;8.24;nan;101239.00;5036825;28;20051;-81
2023/05/06 10:35:49;;;;;;;10.40;7.53;;;;;;;8.30;nan;101236.34;5009787;28;20055;-82
2023/05/06 10:38:41;;;;;;;9.10;6.73;;;;;;;8.30;nan;101242.50;5021262;28;20522;-84
2023/05/06 10:41:13;;;;;;;11.10;6.97;;;;;;;8.23;nan;101238.13;5024705;28;20093;-83
2023/05/06 10:43:48;;;;;;;10.67;7.40;;;;;;;8.14;nan;101246.03;5011886;28;20048;-86
2023/05/06 10:46:20;;;;;;;10.47;7.00;;;;;;;8.01;nan;101252.19;5010639;28;20047;-81
2023/05/06 10:49:05;;;;;;;9.53;7.70;;;;;;;8.05;nan;101260.06;5008385;28;20552;-82
2023/05/06 10:51:43;;;;;;;14.33;10.13;;;;;;;7.69;nan;101268.84;5017025;28;20055;-87
2023/05/06 10:54:18;;;;;;;19.67;17.67;;;;;;;7.70;nan;101262.69;5016536;28;20045;-85
2023/05/06 10:56:50;;;;;;;12.77;10.00;;;;;;;7.80;nan;101261.81;5021074;28;20063;-86
2023/05/06 10:59:53;;;;;;;19.57;14.43;;;;;;;7.75;nan;101266.22;5031577;28;20042;-86
2023/05/06 11:02:30;;;;;;;11.00;8.40;;;;;;;7.89;nan;101261.81;5022358;28;20689;-84
2023/05/06 11:05:12;;;;;;;14.97;9.50;;;;;;;7.74;nan;101264.47;5026409;28;20047;-83
2023/05/06 11:08:27;;;;;;;9.70;7.20;;;;;;;7.70;nan;101274.97;5032797;28;20053;-84
2023/05/06 11:11:37;;;;;;;8.83;7.07;;;;;;;7.70;nan;101262.69;5012776;28;20039;-82
2023/05/06 11:14:37;;;;;;;;;;;;;;;;;;;;;
2023/05/06 11:21:35;;;;;;;8.52;6.53;;;;;;;7.73;nan;101273.22;5025029;28;20095;-83
2023/05/06 11:24:37;;;;;;;;;;;;;;;;;;;;;
2023/05/06 11:27:24;;;;;;;7.30;6.10;;;;;;;7.74;nan;101272.38;5029866;28;20041;-86
2023/05/06 11:31:29;;;;;;;;;;;;;;;;;;;;;
2023/05/06 11:34:37;;;;;;;8.30;5.90;;;;;;;7.71;nan;101274.97;5035202;28;20079;-85
2023/05/06 11:38:15;;;;;;;6.90;5.53;;;;;;;7.77;nan;101284.63;5024608;28;20080;-87
2023/05/06 11:41:06;;;;;;;6.60;5.30;;;;;;;7.87;nan;101295.16;5021935;28;20520;-84
2023/05/06 11:43:55;;;;;;;5.77;4.90;;;;;;;7.81;nan;101294.28;5029409;28;20045;-86
2023/05/06 11:46:37;;;;;;;7.03;4.83;;;;;;;7.69;nan;101292.50;5010156;28;20051;-86
2023/05/06 11:49:35;;;;;;;8.38;5.95;;;;;;;7.74;nan;101287.28;5022312;28;20037;-86
2023/05/06 11:52:14;;;;;;;6.37;5.20;;;;;;;7.81;nan;101289.88;5032190;28;20510;-84
2023/05/06 11:55:08;;;;;;;6.70;5.53;;;;;;;7.71;nan;101292.50;5030757;28;20541;-82
2023/05/06 11:57:45;;;;;;;6.80;5.37;;;;;;;7.59;nan;101290.75;5021478;28;20049;-83
2023/05/06 12:00:14;;;;;;;7.30;5.43;;;;;;;7.64;nan;101296.88;5021429;28;20047;-82
2023/05/06 12:02:47;;;;;;;6.80;5.47;;;;;;;7.79;nan;101296.03;5006662;28;20046;-83
2023/05/06 12:05:15;;;;;;;6.13;5.45;;;;;;;7.90;nan;101299.53;5014977;28;20679;-83
2023/05/06 12:07:43;;;;;;;7.43;5.57;;;;;;;7.71;nan;101298.66;5016784;28;20047;-82
2023/05/06 12:10:12;;;;;;;11.67;6.50;;;;;;;7.91;nan;101298.69;5003834;28;20053;-83
2023/05/06 12:12:42;;;;;;;8.60;6.17;;;;;;;7.87;nan;101296.91;5023916;28;20096;-83